createdAt,value
2018-11-11T00:02:46.090Z,9.4
2018-11-11T00:07:46.125Z,9.4
2018-11-11T00:12:46.083Z,9.4
2018-11-11T00:17:46.086Z,9.4
2018-11-11T00:22:46.100Z,9.4
2018-11-11T00:27:46.088Z,9.4
2018-11-11T00:32:56.880Z,9.4
2018-11-11T00:37:56.845Z,9.4
2018-11-11T00:42:56.838Z,9.4
2018-11-11T00:47:56.839Z,9.4
2018-11-11T00:52:56.868Z,9.3
2018-11-11T00:57:56.870Z,9.4
2018-11-11T01:02:56.870Z,9.4
2018-11-11T01:07:56.867Z,9.3
2018-11-11T01:12:56.871Z,9.3
2018-11-11T01:18:07.872Z,9.3
2018-11-11T01:23:07.877Z,9.3
2018-11-11T01:28:07.872Z,9.4
2018-11-11T01:33:07.864Z,9.3
2018-11-11T01:38:07.894Z,9.3
2018-11-11T01:43:07.878Z,9.3
2018-11-11T01:48:07.893Z,9.3
2018-11-11T01:53:07.878Z,9.2
2018-11-11T01:58:07.888Z,9.2
2018-11-11T02:03:19.015Z,9.2
2018-11-11T02:08:19.016Z,9.2
2018-11-11T02:13:19.025Z,9.2
2018-11-11T02:18:19.028Z,9.2
2018-11-11T02:23:19.011Z,9.2
2018-11-11T02:28:19.018Z,9.2
2018-11-11T02:33:19.044Z,9.2
2018-11-11T02:38:18.984Z,9.2
2018-11-11T02:43:19.035Z,9.2
2018-11-11T02:48:30.023Z,9.2
2018-11-11T02:53:30.074Z,9.2
2018-11-11T02:58:30.008Z,9.2
2018-11-11T03:03:29.999Z,9.2
2018-11-11T03:08:30.011Z,9.1
2018-11-11T03:13:30.010Z,9.1
2018-11-11T03:18:30.015Z,9
2018-11-11T03:23:30.015Z,9
2018-11-11T03:28:30.017Z,9
2018-11-11T03:33:40.712Z,9
2018-11-11T03:38:40.707Z,9.1
2018-11-11T03:43:40.708Z,9.1
2018-11-11T03:48:40.713Z,9.1
2018-11-11T03:53:40.725Z,9.1
2018-11-11T03:58:40.812Z,9
2018-11-11T04:03:40.703Z,9
2018-11-11T04:08:40.666Z,9
2018-11-11T04:13:40.727Z,9
2018-11-11T04:18:52.287Z,8.9
2018-11-11T04:23:52.295Z,8.9
2018-11-11T04:28:52.302Z,8.8
2018-11-11T04:33:52.300Z,8.8
2018-11-11T04:38:52.298Z,8.9
2018-11-11T04:43:52.317Z,8.9
2018-11-11T04:48:52.306Z,8.9
2018-11-11T04:53:52.304Z,8.9
2018-11-11T04:58:52.306Z,8.8
2018-11-11T05:04:03.348Z,8.9
2018-11-11T05:09:03.358Z,8.8
2018-11-11T05:14:03.344Z,8.7
2018-11-11T05:19:03.357Z,8.7
2018-11-11T05:24:03.350Z,8.8
2018-11-11T05:29:03.355Z,8.7
2018-11-11T05:34:03.362Z,8.8
2018-11-11T05:39:04.333Z,8.7
2018-11-11T05:44:04.331Z,8.7
2018-11-11T05:49:16.885Z,8.7
2018-11-11T05:54:17.113Z,8.7
2018-11-11T05:59:17.042Z,8.7
2018-11-11T06:04:16.892Z,8.7
2018-11-11T06:09:16.917Z,8.7
2018-11-11T06:14:16.886Z,8.7
2018-11-11T06:19:16.888Z,8.6
2018-11-11T06:24:16.899Z,8.6
2018-11-11T06:29:16.887Z,8.6
2018-11-11T06:34:28.184Z,8.5
2018-11-11T06:39:28.181Z,8.5
2018-11-11T06:44:28.181Z,8.5
2018-11-11T06:49:28.214Z,8.5
2018-11-11T06:54:28.187Z,8.5
2018-11-11T06:59:28.167Z,8.5
2018-11-11T07:04:28.203Z,8.5
2018-11-11T07:09:28.209Z,8.6
2018-11-11T07:14:28.150Z,8.5
2018-11-11T07:19:39.984Z,8.6
2018-11-11T07:24:39.975Z,8.5
2018-11-11T07:29:39.975Z,8.5
2018-11-11T07:34:40.008Z,8.7
2018-11-11T07:39:39.998Z,8.7
2018-11-11T07:44:39.998Z,8.7
2018-11-11T07:49:39.991Z,8.6
2018-11-11T07:54:40.000Z,8.7
2018-11-11T07:59:39.992Z,8.8
2018-11-11T08:04:51.987Z,8.9
2018-11-11T08:09:51.967Z,8.9
2018-11-11T08:14:51.951Z,8.9
2018-11-11T08:19:51.957Z,8.9
2018-11-11T08:24:51.954Z,9
2018-11-11T08:29:51.966Z,9
2018-11-11T08:34:51.966Z,9.1
2018-11-11T08:39:51.964Z,9
2018-11-11T08:44:52.181Z,9.1
2018-11-11T08:50:04.122Z,9.1
2018-11-11T08:55:04.122Z,8.9
2018-11-11T09:00:04.157Z,9
2018-11-11T09:05:04.151Z,9.1
2018-11-11T09:10:04.142Z,9.2
2018-11-11T09:15:04.158Z,9.3
2018-11-11T09:20:04.168Z,9.3
2018-11-11T09:25:04.101Z,9.5
2018-11-11T09:30:04.102Z,9.6
2018-11-11T09:35:15.523Z,9.6
2018-11-11T09:40:15.533Z,9.8
2018-11-11T09:45:15.399Z,9.8
2018-11-11T09:50:15.441Z,9.8
2018-11-11T09:55:15.475Z,9.7
2018-11-11T10:00:15.460Z,9.8
2018-11-11T10:05:15.410Z,10
2018-11-11T10:10:15.534Z,9.9
2018-11-11T10:15:15.533Z,10
2018-11-11T10:20:28.497Z,9.9
2018-11-11T10:25:28.438Z,10
2018-11-11T10:30:28.384Z,10.2
2018-11-11T10:42:40.860Z,9.9
2018-11-11T10:47:40.798Z,10
2018-11-11T10:52:41.915Z,10
2018-11-11T10:57:40.804Z,10.2
2018-11-11T11:02:50.454Z,10
2018-11-11T11:07:50.423Z,10.4
2018-11-11T11:12:50.418Z,10.8
2018-11-11T11:17:50.408Z,11.2
2018-11-11T11:22:50.453Z,11.3
2018-11-11T11:27:50.418Z,11.4
2018-11-11T11:32:50.438Z,11.6
2018-11-11T11:37:50.785Z,11.6
2018-11-11T11:42:50.787Z,11.6
2018-11-11T11:48:02.840Z,11.5
2018-11-11T11:53:02.993Z,11.5
2018-11-11T11:58:02.905Z,11.3
2018-11-11T12:03:02.822Z,11.4
2018-11-11T12:08:02.841Z,11.5
2018-11-11T12:13:02.882Z,11.6
2018-11-11T12:18:02.827Z,11.6
2018-11-11T12:23:02.831Z,11.4
2018-11-11T12:28:02.911Z,11.4
2018-11-11T12:33:13.932Z,11.5
2018-11-11T12:38:13.911Z,11.4
2018-11-11T12:43:13.990Z,11.5
2018-11-11T12:48:14.008Z,11.6
2018-11-11T12:53:13.931Z,11.7
2018-11-11T12:58:14.010Z,11.6
2018-11-11T13:03:13.872Z,11.5
2018-11-11T13:08:14.642Z,11.6
2018-11-11T13:13:14.648Z,11.6
2018-11-11T13:18:27.267Z,11.6
2018-11-11T13:23:27.267Z,11.4
2018-11-11T13:28:27.293Z,11.5
2018-11-11T13:33:27.311Z,11.7
2018-11-11T13:38:27.387Z,11.6
2018-11-11T13:43:27.262Z,11.6
2018-11-11T13:48:27.311Z,11.6
2018-11-11T13:53:27.303Z,11.6
2018-11-11T13:58:27.322Z,11.5
2018-11-11T14:03:38.714Z,11.5
2018-11-11T14:08:38.703Z,11.5
2018-11-11T14:13:38.705Z,11.5
2018-11-11T14:18:38.884Z,11.5
2018-11-11T14:23:38.662Z,11.4
2018-11-11T14:28:38.793Z,11.4
2018-11-11T14:33:38.733Z,11.3
2018-11-11T14:38:38.790Z,11.1
2018-11-11T14:43:38.722Z,11.1
2018-11-11T14:48:49.997Z,11
2018-11-11T14:53:50.102Z,10.9
2018-11-11T14:58:50.233Z,10.8
2018-11-11T15:03:49.977Z,10.8
2018-11-11T15:08:50.003Z,10.7
2018-11-11T15:13:50.051Z,10.6
2018-11-11T15:18:50.082Z,10.5
2018-11-11T15:23:49.962Z,10.4
2018-11-11T15:28:50.002Z,10.3
2018-11-11T15:34:01.343Z,10
2018-11-11T15:39:01.346Z,9.9
2018-11-11T15:44:01.377Z,9.9
2018-11-11T15:49:01.394Z,9.7
2018-11-11T15:54:01.386Z,9.5
2018-11-11T15:59:01.384Z,9.3
2018-11-11T16:04:01.404Z,9.2
2018-11-11T16:09:01.998Z,9.2
2018-11-11T16:14:01.980Z,9.1
2018-11-11T16:19:15.557Z,9
2018-11-11T16:24:15.594Z,8.8
2018-11-11T16:29:15.641Z,8.7
2018-11-11T16:34:15.587Z,8.7
2018-11-11T16:39:15.614Z,8.7
2018-11-11T16:44:15.592Z,8.9
2018-11-11T16:49:15.584Z,8.9
2018-11-11T16:56:00.051Z,9
2018-11-11T17:01:00.146Z,8.9
2018-11-11T17:06:00.130Z,8.7
2018-11-11T17:11:00.106Z,8.6
2018-11-11T17:16:00.052Z,8.4
2018-11-11T17:21:00.146Z,8.2
2018-11-11T17:26:00.203Z,8.1
2018-11-11T17:31:03.782Z,8.1
2018-11-11T17:36:03.844Z,8
2018-11-11T17:41:15.727Z,7.8
2018-11-11T17:46:15.759Z,7.7
2018-11-11T17:51:15.768Z,7.7
2018-11-11T17:56:15.745Z,7.5
2018-11-11T18:01:15.758Z,7.4
2018-11-11T18:06:15.790Z,7.2
2018-11-11T18:11:15.875Z,7.2
2018-11-11T18:16:17.653Z,7.1
2018-11-11T18:21:17.606Z,6.9
2018-11-11T18:26:29.820Z,6.9
2018-11-11T18:31:30.072Z,6.8
2018-11-11T18:36:29.762Z,6.7
2018-11-11T18:41:29.781Z,6.7
2018-11-11T18:46:29.835Z,7.2
2018-11-11T18:51:29.799Z,7.6
2018-11-11T18:56:29.763Z,7.5
2018-11-11T19:01:29.849Z,7.5
2018-11-11T19:06:29.774Z,7.6
2018-11-11T19:11:39.602Z,7.8
2018-11-11T19:16:39.590Z,8.1
2018-11-11T19:21:39.803Z,8.2
2018-11-11T19:26:39.591Z,8.3
2018-11-11T19:31:39.782Z,8.4
2018-11-11T19:36:42.068Z,8.4
2018-11-11T19:41:39.632Z,8.5
2018-11-11T19:46:39.852Z,8.6
2018-11-11T19:51:39.938Z,8.6
2018-11-11T19:56:52.850Z,8.6
2018-11-11T20:01:52.972Z,8.6
2018-11-11T20:06:52.855Z,8.7
2018-11-11T20:11:52.800Z,8.7
2018-11-11T20:16:52.906Z,8.8
2018-11-11T20:21:52.786Z,8.8
2018-11-11T20:26:52.982Z,8.8
2018-11-11T20:31:57.355Z,8.8
2018-11-11T20:36:56.876Z,8.8
2018-11-11T20:42:11.768Z,8.7
2018-11-11T20:47:11.320Z,8.6
2018-11-11T20:52:11.390Z,8.6
2018-11-11T20:57:11.512Z,8.5
2018-11-11T21:02:11.292Z,8.4
2018-11-11T21:07:11.476Z,8.5
2018-11-11T21:12:11.362Z,8.3
2018-11-11T21:17:13.324Z,8.3
2018-11-11T21:22:13.320Z,8.2
2018-11-11T21:27:24.647Z,8.2
2018-11-11T21:32:24.690Z,8.2
2018-11-11T21:37:24.667Z,8.2
2018-11-11T21:42:24.636Z,8.3
2018-11-11T21:47:24.649Z,8.2
2018-11-11T21:52:24.736Z,8.2
2018-11-11T21:57:24.671Z,8.3
2018-11-11T22:02:24.803Z,8.2
2018-11-11T22:07:24.783Z,8.3
2018-11-11T22:12:36.763Z,8.3
2018-11-11T22:17:36.967Z,8.3
2018-11-11T22:22:36.751Z,8.3
2018-11-11T22:27:36.899Z,8.3
2018-11-11T22:32:36.934Z,8.3
2018-11-11T22:37:36.766Z,8.4
2018-11-11T22:42:36.775Z,8.3
2018-11-11T22:47:37.115Z,8.4
2018-11-11T22:52:37.272Z,8.3
2018-11-11T22:57:49.635Z,8.4
2018-11-11T23:02:49.626Z,8.3
2018-11-11T23:07:49.767Z,8.3
2018-11-11T23:12:49.808Z,8.3
2018-11-11T23:17:49.737Z,8.3
2018-11-11T23:22:49.634Z,8.3
2018-11-11T23:27:49.639Z,8.3
2018-11-11T23:32:52.664Z,8.3
2018-11-11T23:37:52.852Z,8.3
2018-11-11T23:43:04.707Z,8.4
2018-11-11T23:48:04.845Z,8.3
2018-11-11T23:53:04.713Z,8.4
2018-11-11T23:58:04.837Z,8.4
